Capitol Logistics 339


KMIA
Miami International Airport
Miami, Florida, US
TBPB
Grantley Adams International Airport
Bridgetown, , BB

Activity Log

Date Flight Route Aircraft Duration
02/04/2019 CPX339 SKIPS2 SKIPS BR53V ZQA A555 ILURI UA555 BGI B763 3h 14m

Route Details

Aircraft Information
Primary: Boeing 767-300BDSF
Backup: Not Available
Route Data
Distance: 1402nm
Sched. Duration: 2h 25m
Avg. Duration: 3h 14m (+90m)
Times Flown: 1
Recm'd Route: SKIPS2 SKIPS Y290 HAGIT Y421 MEEGL ILURI UA555 BGI
Planned Altitude: 37,000ft
Origin Wx: KMIA 070253Z 09012KT 10SM SCT020 BKN050 BKN250 25/21 A3005 RMK AO2 SLP177 T02500211 50012
Dest. Wx: TBPB 070300Z 10014KT 9999 SCT020 27/23 Q1015 NOSIG
Notes:

Financial History
Total Freight: 103,000lbs
Average Load: 103,000lbs/flt
Fuel Used: 39,140lbs
Avg. Fuel Used: 39,140lbs/flt
Fuel Expense: $48,142
Avg. Fuel Expense: $48,142
Avg. Fuel Cost: $1.23/lbs
Total Gross Income: $130,810
Pilot Pay: $149
Total Expenses: $14,179
Total Revenue: $67,712
Average Revenue: $130,810.00